createdAt,value
2023-03-29T00:00:00.945Z,10.90
2023-03-29T00:03:02.388Z,10.30
2023-03-29T00:05:51.152Z,9.87
2023-03-29T00:08:40.077Z,9.60
2023-03-29T00:11:28.735Z,9.53
2023-03-29T00:14:17.367Z,6.80
2023-03-29T00:17:08.010Z,8.70
2023-03-29T00:19:56.632Z,6.37
2023-03-29T00:22:47.086Z,7.07
2023-03-29T00:25:35.678Z,7.63
2023-03-29T00:28:24.885Z,8.60
2023-03-29T00:31:17.556Z,8.00
2023-03-29T00:34:07.828Z,6.23
2023-03-29T00:36:58.196Z,8.70
2023-03-29T00:39:47.750Z,6.80
2023-03-29T00:42:36.398Z,7.47
2023-03-29T00:45:27.938Z,7.07
2023-03-29T00:48:20.404Z,7.17
2023-03-29T00:51:14.300Z,6.73
2023-03-29T00:54:06.786Z,6.83
2023-03-29T00:56:55.544Z,8.20
2023-03-29T00:59:46.752Z,8.53
2023-03-29T01:02:40.151Z,6.70
2023-03-29T01:05:33.809Z,7.57
2023-03-29T01:08:27.828Z,7.30
2023-03-29T01:11:19.327Z,6.47
2023-03-29T01:14:13.397Z,5.90
2023-03-29T01:17:02.491Z,5.17
2023-03-29T01:19:58.997Z,4.83
2023-03-29T01:23:02.991Z,6.20
2023-03-29T01:26:03.846Z,4.50
2023-03-29T01:29:00.847Z,5.30
2023-03-29T01:31:54.044Z,8.87
2023-03-29T01:34:49.436Z,4.63
2023-03-29T01:37:42.515Z,4.37
2023-03-29T01:40:34.610Z,5.57
2023-03-29T01:43:27.138Z,4.27
2023-03-29T01:46:24.946Z,6.53
2023-03-29T01:49:20.598Z,5.23
2023-03-29T01:52:15.799Z,6.27
2023-03-29T01:55:11.104Z,4.80
2023-03-29T01:58:02.011Z,5.53
2023-03-29T02:00:54.301Z,4.17
2023-03-29T02:03:50.382Z,7.00
2023-03-29T02:06:40.468Z,5.57
2023-03-29T02:09:31.247Z,5.47
2023-03-29T02:12:20.653Z,5.97
2023-03-29T02:15:14.021Z,8.53
2023-03-29T02:18:03.870Z,6.70
2023-03-29T02:20:56.107Z,6.80
2023-03-29T02:23:48.943Z,6.83
2023-03-29T02:26:38.135Z,5.10
2023-03-29T02:29:27.704Z,7.57
2023-03-29T02:32:20.630Z,7.13
2023-03-29T02:35:13.996Z,7.07
2023-03-29T02:38:07.400Z,5.97
2023-03-29T02:40:58.876Z,5.17
2023-03-29T02:43:49.819Z,5.87
2023-03-29T02:46:39.158Z,5.67
2023-03-29T02:49:28.547Z,5.83
2023-03-29T02:52:24.061Z,9.60
2023-03-29T02:55:18.753Z,8.73
2023-03-29T02:58:08.788Z,8.67
2023-03-29T03:01:02.499Z,7.00
2023-03-29T03:03:53.093Z,6.30
2023-03-29T03:06:42.682Z,8.63
2023-03-29T03:09:32.239Z,6.90
2023-03-29T03:12:22.538Z,5.83
2023-03-29T03:15:13.463Z,7.27
2023-03-29T03:18:03.819Z,6.67
2023-03-29T03:20:57.602Z,9.43
2023-03-29T03:23:46.315Z,6.87
2023-03-29T03:26:36.018Z,8.63
2023-03-29T03:29:28.369Z,6.83
2023-03-29T03:32:37.943Z,5.10
2023-03-29T03:35:46.378Z,6.07
2023-03-29T03:38:37.017Z,6.03
2023-03-29T03:41:27.465Z,5.70
2023-03-29T03:44:16.525Z,6.60
2023-03-29T03:47:09.541Z,6.23
2023-03-29T03:49:59.255Z,5.80
2023-03-29T03:52:48.645Z,11.40
2023-03-29T03:55:37.305Z,8.43
2023-03-29T03:58:37.274Z,8.10
2023-03-29T04:01:27.304Z,7.10
2023-03-29T04:04:28.174Z,10.83
2023-03-29T04:07:27.682Z,6.20
2023-03-29T04:10:37.421Z,7.37
2023-03-29T04:13:41.570Z,7.03
2023-03-29T04:16:56.921Z,5.27
2023-03-29T04:20:10.268Z,8.73
2023-03-29T04:22:59.003Z,6.10
2023-03-29T04:25:48.118Z,7.13
2023-03-29T04:28:56.414Z,6.43
2023-03-29T04:32:01.537Z,4.47
2023-03-29T04:35:19.528Z,5.73
2023-03-29T04:38:10.454Z,5.97
2023-03-29T04:41:02.062Z,4.57
2023-03-29T04:44:06.899Z,7.27
2023-03-29T04:46:56.382Z,5.50
2023-03-29T04:50:06.613Z,7.77
2023-03-29T04:53:07.442Z,5.40
2023-03-29T04:55:57.956Z,7.73
2023-03-29T04:59:06.570Z,9.10
2023-03-29T05:01:56.801Z,6.93
2023-03-29T05:04:45.529Z,7.73
2023-03-29T05:07:38.198Z,6.20
2023-03-29T05:10:28.345Z,7.67
2023-03-29T05:13:18.135Z,7.73
2023-03-29T05:16:08.906Z,7.53
2023-03-29T05:19:00.190Z,6.03
2023-03-29T05:21:53.043Z,5.43
2023-03-29T05:24:45.000Z,4.67
2023-03-29T05:27:40.407Z,7.00
2023-03-29T05:30:32.173Z,6.60
2023-03-29T05:33:28.703Z,4.00
2023-03-29T05:36:19.162Z,6.43
2023-03-29T05:39:11.368Z,8.13
2023-03-29T05:42:00.798Z,5.87
2023-03-29T05:44:54.651Z,4.60
2023-03-29T05:47:43.409Z,6.43
2023-03-29T05:50:33.796Z,5.20
2023-03-29T05:53:24.760Z,2.83
2023-03-29T05:56:16.454Z,3.67
2023-03-29T05:59:05.526Z,4.80
2023-03-29T06:01:56.425Z,3.40
2023-03-29T06:04:46.040Z,5.03
2023-03-29T06:07:58.121Z,3.90
2023-03-29T06:11:13.707Z,3.13
2023-03-29T06:14:28.929Z,4.37
2023-03-29T06:17:30.942Z,3.60
2023-03-29T06:20:20.093Z,4.43
2023-03-29T06:23:14.522Z,3.50
2023-03-29T06:26:03.326Z,3.67
2023-03-29T06:28:53.178Z,3.93
2023-03-29T06:31:43.078Z,4.70
2023-03-29T06:34:47.107Z,3.63
2023-03-29T06:37:53.664Z,3.60
2023-03-29T06:41:15.424Z,5.80
2023-03-29T06:44:25.516Z,3.87
2023-03-29T06:47:22.862Z,4.27
2023-03-29T06:50:14.955Z,7.93
2023-03-29T06:53:28.116Z,5.83
2023-03-29T06:56:22.659Z,6.53
2023-03-29T06:59:25.110Z,4.67
2023-03-29T07:02:18.645Z,3.70
2023-03-29T07:05:16.749Z,3.37
2023-03-29T07:08:16.326Z,3.37
2023-03-29T07:11:20.373Z,3.77
2023-03-29T07:14:14.826Z,4.57
2023-03-29T07:17:04.159Z,5.20
2023-03-29T07:20:00.015Z,5.50
2023-03-29T07:23:02.671Z,4.10
2023-03-29T07:25:52.831Z,22.30
2023-03-29T07:28:41.940Z,8.33
2023-03-29T07:31:32.917Z,4.80
2023-03-29T07:34:42.537Z,3.83
2023-03-29T07:37:37.944Z,5.43
2023-03-29T07:40:31.718Z,4.73
2023-03-29T07:43:20.467Z,3.07
2023-03-29T07:46:11.250Z,4.73
2023-03-29T07:49:01.003Z,3.97
2023-03-29T07:51:50.172Z,3.50
2023-03-29T07:54:38.941Z,3.63
2023-03-29T07:57:44.643Z,3.77
2023-03-29T08:00:34.606Z,4.33
2023-03-29T08:03:42.254Z,3.47
2023-03-29T08:06:31.632Z,5.67
2023-03-29T08:09:21.159Z,5.97
2023-03-29T08:12:09.940Z,7.57
2023-03-29T08:15:01.873Z,3.93
2023-03-29T08:17:55.003Z,3.07
2023-03-29T08:20:44.236Z,3.30
2023-03-29T08:23:33.484Z,4.33
2023-03-29T08:26:43.467Z,3.40
2023-03-29T08:29:33.180Z,2.67
2023-03-29T08:32:23.412Z,2.73
2023-03-29T08:35:13.003Z,3.60
2023-03-29T08:38:28.764Z,4.90
2023-03-29T08:41:32.576Z,3.17
2023-03-29T08:44:36.224Z,4.70
2023-03-29T08:47:47.019Z,3.00
2023-03-29T08:50:40.643Z,3.70
2023-03-29T08:53:35.133Z,4.07
2023-03-29T08:56:37.301Z,3.20
2023-03-29T08:59:43.054Z,4.57
2023-03-29T09:02:38.045Z,4.67
2023-03-29T09:05:34.310Z,4.00
2023-03-29T09:08:59.513Z,3.83
2023-03-29T09:12:05.053Z,4.17
2023-03-29T09:15:10.237Z,3.67
2023-03-29T09:18:12.509Z,2.87
2023-03-29T09:21:06.513Z,2.75
2023-03-29T09:24:19.124Z,4.87
2023-03-29T09:27:31.417Z,2.23
2023-03-29T09:30:33.027Z,3.22
2023-03-29T09:33:28.041Z,2.75
2023-03-29T09:36:40.184Z,3.10
2023-03-29T09:39:30.350Z,2.03
2023-03-29T09:42:29.760Z,3.83
2023-03-29T09:45:19.513Z,3.17
2023-03-29T09:48:14.602Z,5.38
2023-03-29T09:51:11.970Z,4.15
2023-03-29T09:54:02.469Z,4.95
2023-03-29T09:57:13.830Z,3.83
2023-03-29T10:00:05.835Z,3.28
2023-03-29T10:03:02.976Z,2.85
2023-03-29T10:06:05.228Z,2.88
2023-03-29T10:08:58.883Z,5.38
2023-03-29T10:12:08.380Z,3.75
2023-03-29T10:14:57.910Z,1.90
2023-03-29T10:17:46.567Z,3.22
2023-03-29T10:20:36.543Z,2.55
2023-03-29T10:23:25.202Z,5.78
2023-03-29T10:26:23.860Z,2.45
2023-03-29T10:29:14.300Z,5.47
2023-03-29T10:32:03.081Z,3.65
2023-03-29T10:34:54.054Z,4.47
2023-03-29T10:37:43.781Z,2.10
2023-03-29T10:40:35.181Z,3.42
2023-03-29T10:43:29.728Z,3.75
2023-03-29T10:46:23.933Z,3.92
2023-03-29T10:49:19.794Z,4.38
2023-03-29T10:52:09.197Z,4.65
2023-03-29T10:55:00.437Z,4.57
2023-03-29T10:58:00.577Z,3.22
2023-03-29T11:00:56.754Z,3.72
2023-03-29T11:04:10.008Z,2.35
2023-03-29T11:07:17.732Z,3.25
2023-03-29T11:10:26.427Z,3.85
2023-03-29T11:13:23.462Z,6.18
2023-03-29T11:16:23.413Z,3.90
2023-03-29T11:19:40.080Z,2.90
2023-03-29T11:22:39.901Z,4.45
2023-03-29T11:25:42.696Z,3.90
2023-03-29T11:28:39.490Z,3.13
2023-03-29T11:31:39.172Z,4.10
2023-03-29T11:34:40.061Z,3.90
2023-03-29T11:37:35.568Z,6.25
2023-03-29T11:40:39.427Z,3.53
2023-03-29T11:43:34.279Z,1.92
2023-03-29T11:46:29.831Z,3.42
2023-03-29T11:49:24.132Z,4.60
2023-03-29T11:52:16.766Z,5.05
2023-03-29T11:55:10.848Z,3.20
2023-03-29T11:58:05.280Z,3.80
2023-03-29T12:00:57.923Z,2.95
2023-03-29T12:03:53.795Z,5.35
2023-03-29T12:06:52.355Z,3.47
2023-03-29T12:09:46.745Z,3.67
2023-03-29T12:12:44.321Z,3.25
2023-03-29T12:15:38.011Z,4.05
2023-03-29T12:18:31.312Z,2.33
2023-03-29T12:21:24.257Z,2.25
2023-03-29T12:24:17.121Z,2.80
2023-03-29T12:27:26.799Z,2.40
2023-03-29T12:30:37.029Z,4.20
2023-03-29T12:33:47.742Z,3.30
2023-03-29T12:37:12.446Z,1.77
2023-03-29T12:40:14.288Z,3.63
2023-03-29T12:43:27.490Z,2.45
2023-03-29T12:46:35.834Z,4.43
2023-03-29T12:49:29.746Z,2.65
2023-03-29T12:52:27.453Z,2.70
2023-03-29T12:55:25.597Z,2.95
2023-03-29T12:58:27.260Z,2.80
2023-03-29T13:01:25.260Z,2.63
2023-03-29T13:04:20.284Z,3.83
2023-03-29T13:07:15.314Z,3.33
2023-03-29T13:10:10.379Z,2.97
2023-03-29T13:13:12.319Z,3.47
2023-03-29T13:16:20.449Z,4.47
2023-03-29T13:19:22.856Z,3.03
2023-03-29T13:22:23.647Z,2.65
2023-03-29T13:25:31.621Z,2.58
2023-03-29T13:28:27.406Z,4.32
2023-03-29T13:31:29.526Z,1.92
2023-03-29T13:34:31.983Z,3.65
2023-03-29T13:37:32.151Z,3.20
2023-03-29T13:40:34.391Z,3.42
2023-03-29T13:43:33.116Z,3.10
2023-03-29T13:46:36.446Z,3.15
2023-03-29T13:49:27.625Z,1.70
2023-03-29T13:52:22.301Z,3.88
2023-03-29T13:55:18.556Z,2.90
2023-03-29T13:58:15.020Z,2.78
2023-03-29T14:01:11.719Z,3.80
2023-03-29T14:04:02.071Z,3.72
2023-03-29T14:06:53.263Z,3.17
2023-03-29T14:09:46.414Z,3.28
2023-03-29T14:12:41.898Z,5.72
2023-03-29T14:15:43.510Z,4.32
2023-03-29T14:18:38.200Z,2.95
2023-03-29T14:21:27.186Z,3.05
2023-03-29T14:24:21.711Z,4.38
2023-03-29T14:27:13.565Z,2.38
2023-03-29T14:30:03.275Z,2.75
2023-03-29T14:32:52.448Z,2.95
2023-03-29T14:35:43.397Z,2.42
2023-03-29T14:38:33.122Z,2.95
2023-03-29T14:41:24.385Z,3.40
2023-03-29T14:44:15.454Z,3.95
2023-03-29T14:47:05.650Z,3.08
2023-03-29T14:49:57.370Z,5.13
2023-03-29T14:52:53.081Z,5.13
2023-03-29T14:55:42.923Z,2.85
2023-03-29T14:58:34.736Z,5.85
2023-03-29T15:01:26.123Z,5.22
2023-03-29T15:04:15.800Z,3.33
2023-03-29T15:07:05.628Z,3.67
2023-03-29T15:09:58.404Z,4.97
2023-03-29T15:12:47.594Z,3.50
2023-03-29T15:15:39.242Z,4.20
2023-03-29T15:18:32.704Z,3.88
2023-03-29T15:21:23.177Z,3.42
2023-03-29T15:24:22.022Z,5.57
2023-03-29T15:27:16.377Z,4.05
2023-03-29T15:30:14.090Z,5.38
2023-03-29T15:33:22.483Z,5.78
2023-03-29T15:36:13.574Z,3.90
2023-03-29T15:39:02.773Z,3.38
2023-03-29T15:41:54.050Z,4.05
2023-03-29T15:44:44.248Z,5.88
2023-03-29T15:47:32.916Z,4.40
2023-03-29T15:50:22.412Z,11.88
2023-03-29T15:53:15.572Z,4.18
2023-03-29T15:56:07.082Z,3.92
2023-03-29T15:58:57.053Z,3.00
2023-03-29T16:01:47.525Z,3.92
2023-03-29T16:04:36.634Z,2.53
2023-03-29T16:07:25.366Z,5.10
2023-03-29T16:10:14.959Z,3.33
2023-03-29T16:13:03.692Z,5.25
2023-03-29T16:15:52.718Z,5.72
2023-03-29T16:18:42.920Z,4.88
2023-03-29T16:21:33.052Z,5.90
2023-03-29T16:24:24.130Z,7.10
2023-03-29T16:27:12.816Z,5.72
2023-03-29T16:30:02.261Z,5.32
2023-03-29T16:32:50.910Z,3.83
2023-03-29T16:35:41.444Z,2.17
2023-03-29T16:38:30.091Z,3.30
2023-03-29T16:41:19.635Z,2.72
2023-03-29T16:44:08.667Z,3.08
2023-03-29T16:46:58.952Z,2.65
2023-03-29T16:49:49.060Z,3.10
2023-03-29T16:52:39.010Z,3.40
2023-03-29T16:55:28.773Z,2.30
2023-03-29T16:58:17.400Z,3.50
2023-03-29T17:01:10.930Z,2.83
2023-03-29T17:03:59.611Z,11.68
2023-03-29T17:06:49.084Z,12.75
2023-03-29T17:09:40.108Z,3.97
2023-03-29T17:12:28.708Z,6.82
2023-03-29T17:15:18.550Z,3.75
2023-03-29T17:18:07.311Z,7.93
2023-03-29T17:20:59.166Z,11.68
2023-03-29T17:23:47.824Z,10.93
2023-03-29T17:26:38.631Z,9.27
2023-03-29T17:29:27.296Z,7.13
2023-03-29T17:32:16.314Z,10.50
2023-03-29T17:35:05.722Z,16.42
2023-03-29T17:37:54.710Z,16.85
2023-03-29T17:40:43.345Z,8.75
2023-03-29T17:43:34.121Z,9.48
2023-03-29T17:46:23.604Z,4.88
2023-03-29T17:49:13.608Z,5.35
2023-03-29T17:52:02.593Z,8.52
2023-03-29T17:54:51.414Z,6.80
2023-03-29T17:57:40.078Z,6.28
2023-03-29T18:00:31.148Z,7.30
2023-03-29T18:03:19.874Z,5.90
2023-03-29T18:06:09.445Z,5.78
2023-03-29T18:09:01.313Z,5.78
2023-03-29T18:11:50.055Z,13.65
2023-03-29T18:14:38.704Z,24.48
2023-03-29T18:17:29.780Z,37.13
2023-03-29T18:20:18.764Z,13.27
2023-03-29T18:23:08.180Z,37.58
2023-03-29T18:26:00.245Z,8.30
2023-03-29T18:28:49.902Z,8.13
2023-03-29T18:31:38.559Z,9.10
2023-03-29T18:34:30.975Z,12.20
2023-03-29T18:37:19.680Z,12.38
2023-03-29T18:40:10.698Z,6.53
2023-03-29T18:42:59.318Z,6.03
2023-03-29T18:45:48.904Z,5.63
2023-03-29T18:48:39.236Z,8.57
2023-03-29T18:51:30.580Z,9.35
2023-03-29T18:54:19.402Z,6.65
2023-03-29T18:57:08.075Z,6.07
2023-03-29T18:59:56.798Z,11.88
2023-03-29T19:02:46.809Z,34.50
2023-03-29T19:05:39.594Z,16.85
2023-03-29T19:08:30.060Z,15.05
2023-03-29T19:11:21.683Z,7.57
2023-03-29T19:14:15.608Z,5.70
2023-03-29T19:17:05.144Z,4.25
2023-03-29T19:19:54.247Z,5.35
2023-03-29T19:22:43.484Z,8.25
2023-03-29T19:25:33.808Z,11.13
2023-03-29T19:28:22.764Z,14.63
2023-03-29T19:31:12.334Z,4.78
2023-03-29T19:34:01.341Z,11.10
2023-03-29T19:36:50.122Z,8.45
2023-03-29T19:39:41.454Z,12.15
2023-03-29T19:42:31.463Z,6.30
2023-03-29T19:45:24.416Z,8.77
2023-03-29T19:48:21.915Z,6.20
2023-03-29T19:51:12.529Z,6.75
2023-03-29T19:54:01.173Z,7.25
2023-03-29T19:56:52.396Z,5.35
2023-03-29T19:59:43.036Z,5.28
2023-03-29T20:02:32.150Z,5.78
2023-03-29T20:05:22.051Z,9.35
2023-03-29T20:08:10.986Z,5.93
2023-03-29T20:11:00.337Z,5.72
2023-03-29T20:13:49.023Z,5.05
2023-03-29T20:16:40.405Z,8.32
2023-03-29T20:19:29.988Z,5.72
2023-03-29T20:22:19.363Z,6.10
2023-03-29T20:25:09.293Z,4.75
2023-03-29T20:27:59.623Z,6.15
2023-03-29T20:30:51.154Z,5.95
2023-03-29T20:33:42.897Z,6.40
2023-03-29T20:36:31.698Z,11.90
2023-03-29T20:39:25.157Z,8.23
2023-03-29T20:42:15.673Z,9.45
2023-03-29T20:45:04.750Z,12.80
2023-03-29T20:47:58.082Z,9.40
2023-03-29T20:50:48.350Z,13.40
2023-03-29T20:53:36.987Z,9.27
2023-03-29T20:56:26.400Z,12.20
2023-03-29T20:59:15.739Z,53.60
2023-03-29T21:02:04.904Z,50.70
2023-03-29T21:04:54.745Z,24.30
2023-03-29T21:07:48.012Z,10.82
2023-03-29T21:10:36.992Z,6.03
2023-03-29T21:13:26.043Z,7.68
2023-03-29T21:16:15.573Z,21.48
2023-03-29T21:19:04.285Z,14.88
2023-03-29T21:21:52.977Z,11.05
2023-03-29T21:24:43.399Z,7.72
2023-03-29T21:27:32.025Z,12.80
2023-03-29T21:30:21.615Z,7.78
2023-03-29T21:33:10.404Z,8.88
2023-03-29T21:35:59.644Z,8.00
2023-03-29T21:38:48.384Z,8.85
2023-03-29T21:41:39.150Z,6.10
2023-03-29T21:44:27.777Z,6.80
2023-03-29T21:47:17.309Z,7.95
2023-03-29T21:50:06.791Z,8.88
2023-03-29T21:52:56.148Z,9.70
2023-03-29T21:55:45.003Z,8.55
2023-03-29T21:58:35.999Z,8.55
2023-03-29T22:01:24.703Z,10.32
2023-03-29T22:04:22.532Z,6.80
2023-03-29T22:07:18.503Z,6.22
2023-03-29T22:10:09.669Z,9.48
2023-03-29T22:12:58.284Z,6.15
2023-03-29T22:15:50.332Z,10.18
2023-03-29T22:18:46.780Z,6.57
2023-03-29T22:21:37.887Z,5.85
2023-03-29T22:24:26.575Z,6.28
2023-03-29T22:27:15.477Z,5.72
2023-03-29T22:30:06.191Z,7.90
2023-03-29T22:32:57.822Z,7.20
2023-03-29T22:35:46.469Z,6.97
2023-03-29T22:38:35.614Z,6.63
2023-03-29T22:41:26.425Z,8.25
2023-03-29T22:44:15.040Z,6.07
2023-03-29T22:47:05.327Z,7.30
2023-03-29T22:49:55.427Z,6.60
2023-03-29T22:52:46.091Z,5.30
2023-03-29T22:55:34.688Z,6.57
2023-03-29T22:58:24.754Z,6.10
2023-03-29T23:01:13.701Z,7.07
2023-03-29T23:04:03.317Z,5.78
2023-03-29T23:06:53.706Z,9.45
2023-03-29T23:09:42.323Z,5.72
2023-03-29T23:12:31.369Z,4.60
2023-03-29T23:15:23.248Z,7.43
2023-03-29T23:18:13.166Z,7.00
2023-03-29T23:21:02.923Z,8.63
2023-03-29T23:23:53.096Z,11.73
2023-03-29T23:26:43.549Z,6.85
2023-03-29T23:29:32.272Z,7.78
2023-03-29T23:32:21.338Z,7.32
2023-03-29T23:35:10.948Z,7.97
2023-03-29T23:38:00.113Z,7.00
2023-03-29T23:40:55.373Z,10.20
2023-03-29T23:43:48.138Z,6.32
2023-03-29T23:46:36.809Z,8.13
2023-03-29T23:49:26.431Z,9.45
2023-03-29T23:52:15.240Z,8.48
2023-03-29T23:55:06.124Z,6.45
2023-03-29T23:57:56.057Z,7.28
